New Fairfield, Connecticut
Current Conditions -  °F | °C
As of 12:53 PM on Friday 31 Oct 2014 (Local Time) from KDXR Reporting Station
Broken Clouds Broken Clouds  
Wind Chill: 51°   Ceiling: 4700
Heat Index: 51°   Visibility: 10mi
Dew Point: 34°   Wind: 5mph
Humidity: 52%   Direction: 50°NE
Pressure: 29.97"   Gusts: NA
Location:  41.47°N, 73.49°W
Report Text: KDXR 311653Z 05004KT 10SM BKN047 11/01 A2997 RMK AO2 SLP150 T01060011
Loading
Personal Weather Stations






























Interactive Weather Map
Tropical Storm Tracking
New forecast layout! Learn more

10-Day Weather Forecast

Advertisements
Track Severe Weather on mobile